sensor_id;sensor_type;location;lat;lon;timestamp;pressure;altitude;pressure_sealevel;temperature;humidity
64886;BME280;51514;52.206;5.114;2023-11-21T00:01:37;101087.09;;;19.77;57.07
64886;BME280;51514;52.206;5.114;2023-11-21T00:04:03;101093.63;;;19.76;56.81
64886;BME280;51514;52.206;5.114;2023-11-21T00:06:28;101090.25;;;19.74;56.96
64886;BME280;51514;52.206;5.114;2023-11-21T00:08:55;101096.78;;;19.73;57.08
64886;BME280;51514;52.206;5.114;2023-11-21T00:11:20;101102.44;;;19.72;57.00
64886;BME280;51514;52.206;5.114;2023-11-21T00:13:46;101109.19;;;19.69;57.11
64886;BME280;51514;52.206;5.114;2023-11-21T00:16:11;101107.53;;;19.68;57.04
64886;BME280;51514;52.206;5.114;2023-11-21T00:18:37;101116.78;;;19.67;57.24
64886;BME280;51514;52.206;5.114;2023-11-21T00:21:02;101112.56;;;19.64;57.06
64886;BME280;51514;52.206;5.114;2023-11-21T00:23:28;101115.31;;;19.64;57.31
64886;BME280;51514;52.206;5.114;2023-11-21T00:25:54;101113.81;;;19.62;57.01
64886;BME280;51514;52.206;5.114;2023-11-21T00:28:19;101119.50;;;19.60;56.97
64886;BME280;51514;52.206;5.114;2023-11-21T00:30:44;101115.94;;;19.60;57.02
64886;BME280;51514;52.206;5.114;2023-11-21T00:33:10;101121.84;;;19.57;57.23
64886;BME280;51514;52.206;5.114;2023-11-21T00:35:35;101116.59;;;19.55;57.29
64886;BME280;51514;52.206;5.114;2023-11-21T00:38:01;101116.59;;;19.55;57.25
64886;BME280;51514;52.206;5.114;2023-11-21T00:40:26;101117.84;;;19.53;57.27
64886;BME280;51514;52.206;5.114;2023-11-21T00:42:52;101118.03;;;19.51;57.33
64886;BME280;51514;52.206;5.114;2023-11-21T00:45:17;101114.47;;;19.51;57.35
64886;BME280;51514;52.206;5.114;2023-11-21T00:47:42;101121.19;;;19.48;57.16
64886;BME280;51514;52.206;5.114;2023-11-21T00:50:08;101123.28;;;19.46;57.20
64886;BME280;51514;52.206;5.114;2023-11-21T00:52:34;101122.44;;;19.46;57.12
64886;BME280;51514;52.206;5.114;2023-11-21T00:54:59;101123.69;;;19.43;57.26
64886;BME280;51514;52.206;5.114;2023-11-21T00:57:26;101127.28;;;19.44;57.33
64886;BME280;51514;52.206;5.114;2023-11-21T00:59:51;101125.78;;;19.41;57.22
64886;BME280;51514;52.206;5.114;2023-11-21T01:02:17;101130.41;;;19.41;57.20
64886;BME280;51514;52.206;5.114;2023-11-21T01:04:42;101136.09;;;19.39;57.22
64886;BME280;51514;52.206;5.114;2023-11-21T01:07:08;101131.47;;;19.40;57.30
64886;BME280;51514;52.206;5.114;2023-11-21T01:09:33;101138.19;;;19.37;57.16
64886;BME280;51514;52.206;5.114;2023-11-21T01:11:58;101149.38;;;19.36;57.33
64886;BME280;51514;52.206;5.114;2023-11-21T01:14:25;101147.69;;;19.35;57.51
64886;BME280;51514;52.206;5.114;2023-11-21T01:16:52;101143.25;;;19.33;57.34
64886;BME280;51514;52.206;5.114;2023-11-21T01:19:18;101141.56;;;19.32;57.34
64886;BME280;51514;52.206;5.114;2023-11-21T01:21:43;101137.16;;;19.31;57.25
64886;BME280;51514;52.206;5.114;2023-11-21T01:24:08;101134.63;;;19.30;57.38
64886;BME280;51514;52.206;5.114;2023-11-21T01:26:34;101150.19;;;19.29;57.28
64886;BME280;51514;52.206;5.114;2023-11-21T01:28:59;101153.13;;;19.28;57.18
64886;BME280;51514;52.206;5.114;2023-11-21T01:31:24;101151.44;;;19.27;57.42
64886;BME280;51514;52.206;5.114;2023-11-21T01:33:54;101159.84;;;19.25;57.37
64886;BME280;51514;52.206;5.114;2023-11-21T01:36:20;101158.19;;;19.24;57.48
64886;BME280;51514;52.206;5.114;2023-11-21T01:38:46;101160.91;;;19.24;57.33
64886;BME280;51514;52.206;5.114;2023-11-21T01:41:13;101166.38;;;19.24;57.34
64886;BME280;51514;52.206;5.114;2023-11-21T01:43:38;101167.44;;;19.23;57.33
64886;BME280;51514;52.206;5.114;2023-11-21T01:46:04;101171.22;;;19.22;57.48
64886;BME280;51514;52.206;5.114;2023-11-21T01:48:32;101168.47;;;19.22;57.47
64886;BME280;51514;52.206;5.114;2023-11-21T01:50:58;101179.41;;;19.22;57.63
64886;BME280;51514;52.206;5.114;2023-11-21T01:53:26;101178.78;;;19.20;57.63
64886;BME280;51514;52.206;5.114;2023-11-21T01:55:53;101185.94;;;19.21;57.27
64886;BME280;51514;52.206;5.114;2023-11-21T01:58:20;101176.03;;;19.20;57.35
64886;BME280;51514;52.206;5.114;2023-11-21T02:00:46;101184.25;;;19.20;57.58
64886;BME280;51514;52.206;5.114;2023-11-21T02:03:14;101187.19;;;19.19;57.38
64886;BME280;51514;52.206;5.114;2023-11-21T02:05:39;101198.13;;;19.19;57.59
64886;BME280;51514;52.206;5.114;2023-11-21T02:08:04;101204.44;;;19.19;57.79
64886;BME280;51514;52.206;5.114;2023-11-21T02:10:30;101196.44;;;19.18;57.64
64886;BME280;51514;52.206;5.114;2023-11-21T02:12:56;101201.88;;;19.18;57.91
64886;BME280;51514;52.206;5.114;2023-11-21T02:15:22;101201.88;;;19.18;57.59
64886;BME280;51514;52.206;5.114;2023-11-21T02:17:49;101202.94;;;19.17;57.66
64886;BME280;51514;52.206;5.114;2023-11-21T02:20:19;101197.47;;;19.17;57.52
64886;BME280;51514;52.206;5.114;2023-11-21T02:22:55;101202.53;;;19.13;57.76
64886;BME280;51514;52.206;5.114;2023-11-21T02:25:29;101210.72;;;19.13;57.59
64886;BME280;51514;52.206;5.114;2023-11-21T02:27:56;101206.94;;;19.14;57.63
64886;BME280;51514;52.206;5.114;2023-11-21T02:30:22;101216.19;;;19.13;57.64
64886;BME280;51514;52.206;5.114;2023-11-21T02:32:50;101213.66;;;19.12;57.49
64886;BME280;51514;52.206;5.114;2023-11-21T02:35:18;101210.94;;;19.12;57.70
64886;BME280;51514;52.206;5.114;2023-11-21T02:37:46;101216.59;;;19.10;57.46
64886;BME280;51514;52.206;5.114;2023-11-21T02:40:11;101216.59;;;19.10;57.55
64886;BME280;51514;52.206;5.114;2023-11-21T02:42:38;101215.75;;;19.10;57.51
64886;BME280;51514;52.206;5.114;2023-11-21T02:45:03;101218.69;;;19.08;57.50
64886;BME280;51514;52.206;5.114;2023-11-21T02:47:30;101214.28;;;19.07;57.41
64886;BME280;51514;52.206;5.114;2023-11-21T02:49:55;101215.31;;;19.06;57.63
64886;BME280;51514;52.206;5.114;2023-11-21T02:52:21;101215.31;;;19.06;57.50
64886;BME280;51514;52.206;5.114;2023-11-21T02:54:46;101219.94;;;19.06;57.60
64886;BME280;51514;52.206;5.114;2023-11-21T02:57:12;101216.56;;;19.04;57.43
64886;BME280;51514;52.206;5.114;2023-11-21T02:59:37;101209.44;;;19.03;57.53
64886;BME280;51514;52.206;5.114;2023-11-21T03:02:02;101211.53;;;19.01;57.53
64886;BME280;51514;52.206;5.114;2023-11-21T03:04:28;101217.00;;;19.01;57.59
64886;BME280;51514;52.206;5.114;2023-11-21T03:06:53;101216.16;;;19.00;57.58
64886;BME280;51514;52.206;5.114;2023-11-21T03:09:18;101216.34;;;18.99;57.70
64886;BME280;51514;52.206;5.114;2023-11-21T03:11:44;101220.13;;;18.98;57.70
64886;BME280;51514;52.206;5.114;2023-11-21T03:14:09;101223.06;;;18.96;57.71
64886;BME280;51514;52.206;5.114;2023-11-21T03:16:36;101223.06;;;18.96;57.78
64886;BME280;51514;52.206;5.114;2023-11-21T03:19:03;101226.84;;;18.95;57.68
64886;BME280;51514;52.206;5.114;2023-11-21T03:21:28;101225.16;;;18.94;57.70
64886;BME280;51514;52.206;5.114;2023-11-21T03:23:54;101225.38;;;18.92;57.78
64886;BME280;51514;52.206;5.114;2023-11-21T03:26:19;101228.91;;;18.93;57.88
64886;BME280;51514;52.206;5.114;2023-11-21T03:28:45;101224.53;;;18.92;57.63
64886;BME280;51514;52.206;5.114;2023-11-21T03:31:11;101228.91;;;18.93;57.73
64886;BME280;51514;52.206;5.114;2023-11-21T03:33:36;101235.66;;;18.90;57.81
64886;BME280;51514;52.206;5.114;2023-11-21T03:36:02;101230.00;;;18.92;57.74
64886;BME280;51514;52.206;5.114;2023-11-21T03:38:28;101239.03;;;18.92;57.71
64886;BME280;51514;52.206;5.114;2023-11-21T03:40:54;101232.72;;;18.92;57.79
64886;BME280;51514;52.206;5.114;2023-11-21T03:43:19;101236.31;;;18.92;57.83
64886;BME280;51514;52.206;5.114;2023-11-21T03:45:44;101237.34;;;18.91;57.82
64886;BME280;51514;52.206;5.114;2023-11-21T03:48:12;101235.47;;;18.92;57.92
64886;BME280;51514;52.206;5.114;2023-11-21T03:50:37;101235.47;;;18.92;57.70
64886;BME280;51514;52.206;5.114;2023-11-21T03:53:04;101242.81;;;18.91;57.87
64886;BME280;51514;52.206;5.114;2023-11-21T03:55:29;101248.47;;;18.90;57.87
64886;BME280;51514;52.206;5.114;2023-11-21T03:57:56;101261.94;;;18.91;57.86
64886;BME280;51514;52.206;5.114;2023-11-21T04:00:22;101263.84;;;18.91;57.91
64886;BME280;51514;52.206;5.114;2023-11-21T04:02:47;101259.41;;;18.90;57.87
64886;BME280;51514;52.206;5.114;2023-11-21T04:05:13;101258.56;;;18.89;58.16
64886;BME280;51514;52.206;5.114;2023-11-21T04:07:38;101270.34;;;18.90;58.05
64886;BME280;51514;52.206;5.114;2023-11-21T04:10:07;101271.59;;;18.87;58.09
64886;BME280;51514;52.206;5.114;2023-11-21T04:12:38;101272.44;;;18.88;57.86
64886;BME280;51514;52.206;5.114;2023-11-21T04:15:03;101279.78;;;18.87;58.12
64886;BME280;51514;52.206;5.114;2023-11-21T04:17:29;101286.09;;;18.88;58.07
64886;BME280;51514;52.206;5.114;2023-11-21T04:19:54;101285.44;;;18.86;58.06
64886;BME280;51514;52.206;5.114;2023-11-21T04:22:19;101281.03;;;18.85;57.99
64886;BME280;51514;52.206;5.114;2023-11-21T04:24:45;101281.22;;;18.83;57.98
64886;BME280;51514;52.206;5.114;2023-11-21T04:27:10;101285.00;;;18.82;58.03
64886;BME280;51514;52.206;5.114;2023-11-21T04:29:35;101296.78;;;18.83;58.13
64886;BME280;51514;52.206;5.114;2023-11-21T04:32:01;101306.03;;;18.82;58.14
64886;BME280;51514;52.206;5.114;2023-11-21T04:34:28;101305.41;;;18.80;58.02
64886;BME280;51514;52.206;5.114;2023-11-21T04:36:56;101307.09;;;18.81;57.95
64886;BME280;51514;52.206;5.114;2023-11-21T04:39:21;101308.13;;;18.80;58.03
64886;BME280;51514;52.206;5.114;2023-11-21T04:41:46;101318.22;;;18.79;57.93
64886;BME280;51514;52.206;5.114;2023-11-21T04:44:12;101316.53;;;18.78;58.01
64886;BME280;51514;52.206;5.114;2023-11-21T04:46:37;101309.38;;;18.77;57.88
64886;BME280;51514;52.206;5.114;2023-11-21T04:49:02;101305.97;;;18.75;58.13
64886;BME280;51514;52.206;5.114;2023-11-21T04:51:28;101309.56;;;18.76;58.24
64886;BME280;51514;52.206;5.114;2023-11-21T04:53:53;101313.34;;;18.75;58.22
64886;BME280;51514;52.206;5.114;2023-11-21T04:56:18;101313.34;;;18.75;58.15
64886;BME280;51514;52.206;5.114;2023-11-21T04:58:44;101311.66;;;18.74;58.21
64886;BME280;51514;52.206;5.114;2023-11-21T05:01:09;101320.69;;;18.74;58.16
64886;BME280;51514;52.206;5.114;2023-11-21T05:03:34;101314.38;;;18.74;58.13
64886;BME280;51514;52.206;5.114;2023-11-21T05:06:00;101326.16;;;18.74;58.19
64886;BME280;51514;52.206;5.114;2023-11-21T05:08:25;101332.66;;;18.73;58.27
64886;BME280;51514;52.206;5.114;2023-11-21T05:10:51;101327.19;;;18.73;58.11
64886;BME280;51514;52.206;5.114;2023-11-21T05:13:17;101323.41;;;18.74;58.21
64886;BME280;51514;52.206;5.114;2023-11-21T05:15:43;101322.56;;;18.74;58.30
64886;BME280;51514;52.206;5.114;2023-11-21T05:18:09;101327.19;;;18.73;58.33
64886;BME280;51514;52.206;5.114;2023-11-21T05:20:35;101338.97;;;18.74;58.30
64886;BME280;51514;52.206;5.114;2023-11-21T05:23:01;101337.06;;;18.74;58.25
64886;BME280;51514;52.206;5.114;2023-11-21T05:25:26;101340.84;;;18.73;58.48
64886;BME280;51514;52.206;5.114;2023-11-21T05:27:52;101340.84;;;18.73;58.32
64886;BME280;51514;52.206;5.114;2023-11-21T05:30:20;101348.00;;;18.74;58.23
64886;BME280;51514;52.206;5.114;2023-11-21T05:32:46;101344.44;;;18.74;58.22
64886;BME280;51514;52.206;5.114;2023-11-21T05:35:11;101351.78;;;18.73;58.16
64886;BME280;51514;52.206;5.114;2023-11-21T05:37:39;101356.41;;;18.73;58.37
64886;BME280;51514;52.206;5.114;2023-11-21T05:40:06;101367.31;;;18.73;58.35
64886;BME280;51514;52.206;5.114;2023-11-21T05:42:35;101371.09;;;18.72;58.27
64886;BME280;51514;52.206;5.114;2023-11-21T05:45:01;101372.16;;;18.71;58.21
64886;BME280;51514;52.206;5.114;2023-11-21T05:47:42;101375.09;;;18.69;58.43
64886;BME280;51514;52.206;5.114;2023-11-21T05:50:09;101373.22;;;18.70;58.17
64886;BME280;51514;52.206;5.114;2023-11-21T05:52:37;101378.19;;;18.59;58.42
64886;BME280;51514;52.206;5.114;2023-11-21T05:55:03;101376.53;;;18.65;58.29
64886;BME280;51514;52.206;5.114;2023-11-21T05:57:32;101390.00;;;18.67;58.43
64886;BME280;51514;52.206;5.114;2023-11-21T05:59:57;101382.00;;;18.65;58.33
64886;BME280;51514;52.206;5.114;2023-11-21T06:02:23;101387.44;;;18.65;58.32
64886;BME280;51514;52.206;5.114;2023-11-21T06:04:48;101397.53;;;18.65;58.62
64886;BME280;51514;52.206;5.114;2023-11-21T06:07:13;101397.53;;;18.65;58.12
64886;BME280;51514;52.206;5.114;2023-11-21T06:09:39;101399.41;;;18.64;58.54
64886;BME280;51514;52.206;5.114;2023-11-21T06:12:05;101399.59;;;18.63;58.53
64886;BME280;51514;52.206;5.114;2023-11-21T06:14:30;101413.28;;;18.63;58.44
64886;BME280;51514;52.206;5.114;2023-11-21T06:16:58;101412.41;;;18.62;58.28
64886;BME280;51514;52.206;5.114;2023-11-21T06:19:23;101419.78;;;18.62;58.47
64886;BME280;51514;52.206;5.114;2023-11-21T06:21:49;101419.78;;;18.62;58.40
64886;BME280;51514;52.206;5.114;2023-11-21T06:24:14;101420.81;;;18.60;58.56
64886;BME280;51514;52.206;5.114;2023-11-21T06:26:40;101420.00;;;18.60;58.47
64886;BME280;51514;52.206;5.114;2023-11-21T06:29:06;101419.16;;;18.59;58.39
64886;BME280;51514;52.206;5.114;2023-11-21T06:31:32;101421.03;;;18.59;58.36
64886;BME280;51514;52.206;5.114;2023-11-21T06:33:58;101419.16;;;18.59;58.69
64886;BME280;51514;52.206;5.114;2023-11-21T06:36:25;101427.34;;;18.59;58.61
64886;BME280;51514;52.206;5.114;2023-11-21T06:38:51;101423.75;;;18.59;58.71
64886;BME280;51514;52.206;5.114;2023-11-21T06:41:16;101436.38;;;18.60;58.80
64886;BME280;51514;52.206;5.114;2023-11-21T06:43:42;101437.19;;;18.60;58.72
64886;BME280;51514;52.206;5.114;2023-11-21T06:46:12;101445.41;;;18.60;58.75
64886;BME280;51514;52.206;5.114;2023-11-21T06:48:41;101448.78;;;18.63;58.80
64886;BME280;51514;52.206;5.114;2023-11-21T06:51:07;101442.28;;;18.64;58.83
64886;BME280;51514;52.206;5.114;2023-11-21T06:53:32;101450.28;;;18.65;58.82
64886;BME280;51514;52.206;5.114;2023-11-21T06:55:57;101454.69;;;18.66;58.73
64886;BME280;51514;52.206;5.114;2023-11-21T06:58:23;101462.72;;;18.68;58.65
64886;BME280;51514;52.206;5.114;2023-11-21T07:00:48;101463.56;;;18.68;58.66
64886;BME280;51514;52.206;5.114;2023-11-21T07:03:15;101466.94;;;18.70;58.75
64886;BME280;51514;52.206;5.114;2023-11-21T07:05:40;101473.25;;;18.71;58.78
64886;BME280;51514;52.206;5.114;2023-11-21T07:08:06;101470.53;;;18.71;58.69
64886;BME280;51514;52.206;5.114;2023-11-21T07:10:32;101469.44;;;18.72;58.81
64886;BME280;51514;52.206;5.114;2023-11-21T07:12:58;101472.00;;;18.73;58.68
64886;BME280;51514;52.206;5.114;2023-11-21T07:15:23;101476.59;;;18.73;58.65
64886;BME280;51514;52.206;5.114;2023-11-21T07:17:51;101478.28;;;18.74;58.84
64886;BME280;51514;52.206;5.114;2023-11-21T07:20:16;101475.38;;;18.75;58.77
64886;BME280;51514;52.206;5.114;2023-11-21T07:22:42;101480.00;;;18.75;58.81
64886;BME280;51514;52.206;5.114;2023-11-21T07:25:07;101477.06;;;18.76;58.73
64886;BME280;51514;52.206;5.114;2023-11-21T07:27:34;101488.84;;;18.77;58.87
64886;BME280;51514;52.206;5.114;2023-11-21T07:30:01;101491.56;;;18.77;58.69
64886;BME280;51514;52.206;5.114;2023-11-21T07:32:30;101495.16;;;18.77;58.77
64886;BME280;51514;52.206;5.114;2023-11-21T07:34:55;101490.72;;;18.76;58.72
64886;BME280;51514;52.206;5.114;2023-11-21T07:37:22;101501.47;;;18.78;58.65
64886;BME280;51514;52.206;5.114;2023-11-21T07:39:47;101504.38;;;18.76;58.69
64886;BME280;51514;52.206;5.114;2023-11-21T07:42:13;101510.69;;;18.77;58.81
64886;BME280;51514;52.206;5.114;2023-11-21T07:44:38;101521.63;;;18.77;58.77
64886;BME280;51514;52.206;5.114;2023-11-21T07:47:04;101521.63;;;18.77;58.71
64886;BME280;51514;52.206;5.114;2023-11-21T07:49:29;101519.94;;;18.76;58.79
64886;BME280;51514;52.206;5.114;2023-11-21T07:51:55;101515.50;;;18.75;58.73
64886;BME280;51514;52.206;5.114;2023-11-21T07:54:20;101530.88;;;18.76;58.63
64886;BME280;51514;52.206;5.114;2023-11-21T07:56:46;101539.06;;;18.76;58.87
64886;BME280;51514;52.206;5.114;2023-11-21T07:59:11;101540.94;;;18.75;58.85
64886;BME280;51514;52.206;5.114;2023-11-21T08:01:37;101544.53;;;18.76;59.05
64886;BME280;51514;52.206;5.114;2023-11-21T08:04:03;101551.03;;;18.75;58.76
64886;BME280;51514;52.206;5.114;2023-11-21T08:06:29;101562.81;;;18.75;58.71
64886;BME280;51514;52.206;5.114;2023-11-21T08:08:55;101557.34;;;18.75;59.06
64886;BME280;51514;52.206;5.114;2023-11-21T08:11:21;101564.69;;;18.75;58.89
64886;BME280;51514;52.206;5.114;2023-11-21T08:13:47;101569.13;;;18.76;58.81
64886;BME280;51514;52.206;5.114;2023-11-21T08:16:12;101568.28;;;18.75;58.87
64886;BME280;51514;52.206;5.114;2023-11-21T08:18:37;101568.28;;;18.75;58.77
64886;BME280;51514;52.206;5.114;2023-11-21T08:21:03;101577.31;;;18.76;58.75
64886;BME280;51514;52.206;5.114;2023-11-21T08:23:30;101588.25;;;18.76;58.83
64886;BME280;51514;52.206;5.114;2023-11-21T08:25:55;101596.44;;;18.76;58.83
64886;BME280;51514;52.206;5.114;2023-11-21T08:28:21;101596.44;;;18.76;58.73
64886;BME280;51514;52.206;5.114;2023-11-21T08:30:51;101599.16;;;18.76;58.75
64886;BME280;51514;52.206;5.114;2023-11-21T08:33:16;101605.66;;;18.75;58.84
64886;BME280;51514;52.206;5.114;2023-11-21T08:35:42;101604.63;;;18.76;59.22
64886;BME280;51514;52.206;5.114;2023-11-21T08:38:07;101613.69;;;18.76;59.12
64886;BME280;51514;52.206;5.114;2023-11-21T08:40:35;101617.44;;;18.75;59.37
64886;BME280;51514;52.206;5.114;2023-11-21T08:43:00;101622.25;;;18.73;59.54
64886;BME280;51514;52.206;5.114;2023-11-21T08:45:25;101625.00;;;18.73;59.58
64886;BME280;51514;52.206;5.114;2023-11-21T08:47:51;101626.88;;;18.73;59.88
64886;BME280;51514;52.206;5.114;2023-11-21T08:50:16;101632.53;;;18.71;60.02
64886;BME280;51514;52.206;5.114;2023-11-21T08:52:42;101633.59;;;18.70;60.04
64886;BME280;51514;52.206;5.114;2023-11-21T08:55:09;101642.81;;;18.69;60.11
64886;BME280;51514;52.206;5.114;2023-11-21T08:57:35;101647.25;;;18.70;60.24
64886;BME280;51514;52.206;5.114;2023-11-21T09:00:01;101646.41;;;18.70;60.00
64886;BME280;51514;52.206;5.114;2023-11-21T09:02:26;101651.03;;;18.69;60.09
64886;BME280;51514;52.206;5.114;2023-11-21T09:04:52;101658.56;;;18.67;60.04
64886;BME280;51514;52.206;5.114;2023-11-21T09:07:21;101657.72;;;18.67;59.68
64886;BME280;51514;52.206;5.114;2023-11-21T09:09:47;101654.97;;;18.67;59.65
64886;BME280;51514;52.206;5.114;2023-11-21T09:12:13;101660.63;;;18.65;59.66
64886;BME280;51514;52.206;5.114;2023-11-21T09:14:38;101669.84;;;18.64;59.87
64886;BME280;51514;52.206;5.114;2023-11-21T09:17:04;101673.44;;;18.65;59.81
64886;BME280;51514;52.206;5.114;2023-11-21T09:19:38;101677.03;;;18.65;60.10
64886;BME280;51514;52.206;5.114;2023-11-21T09:22:04;101688.13;;;18.64;59.89
64886;BME280;51514;52.206;5.114;2023-11-21T09:24:33;101688.78;;;18.66;60.02
64886;BME280;51514;52.206;5.114;2023-11-21T09:26:59;101685.69;;;18.69;60.17
64886;BME280;51514;52.206;5.114;2023-11-21T09:29:28;101687.16;;;18.71;60.01
64886;BME280;51514;52.206;5.114;2023-11-21T09:31:57;101703.00;;;18.76;60.03
64886;BME280;51514;52.206;5.114;2023-11-21T09:34:24;101703.28;;;18.81;59.92
64886;BME280;51514;52.206;5.114;2023-11-21T09:36:51;101705.22;;;18.87;59.92
64886;BME280;51514;52.206;5.114;2023-11-21T09:39:16;101713.50;;;18.93;59.83
64886;BME280;51514;52.206;5.114;2023-11-21T09:41:46;101725.38;;;19.01;59.66
64886;BME280;51514;52.206;5.114;2023-11-21T09:44:18;101718.69;;;19.03;59.58
64886;BME280;51514;52.206;5.114;2023-11-21T09:46:43;101719.78;;;19.09;59.73
64886;BME280;51514;52.206;5.114;2023-11-21T09:49:13;101719.22;;;19.13;59.47
64886;BME280;51514;52.206;5.114;2023-11-21T09:51:42;101726.81;;;19.18;59.42
64886;BME280;51514;52.206;5.114;2023-11-21T09:54:10;101735.50;;;19.21;59.34
64886;BME280;51514;52.206;5.114;2023-11-21T09:56:38;101742.47;;;19.24;59.29
64886;BME280;51514;52.206;5.114;2023-11-21T09:59:05;101745.63;;;19.27;59.18
64886;BME280;51514;52.206;5.114;2023-11-21T10:01:36;101744.59;;;19.28;59.24
64886;BME280;51514;52.206;5.114;2023-11-21T10:04:01;101743.56;;;19.29;59.11
64886;BME280;51514;52.206;5.114;2023-11-21T10:06:27;101750.72;;;19.30;59.05
64886;BME280;51514;52.206;5.114;2023-11-21T10:08:54;101751.59;;;19.31;59.17
64886;BME280;51514;52.206;5.114;2023-11-21T10:11:24;101764.22;;;19.32;59.06
64886;BME280;51514;52.206;5.114;2023-11-21T10:13:52;101759.78;;;19.31;59.07
64886;BME280;51514;52.206;5.114;2023-11-21T10:16:19;101769.69;;;19.32;59.27
64886;BME280;51514;52.206;5.114;2023-11-21T10:18:51;101781.66;;;19.31;59.02
64886;BME280;51514;52.206;5.114;2023-11-21T10:21:18;101784.22;;;19.32;59.12
64886;BME280;51514;52.206;5.114;2023-11-21T10:23:43;101787.97;;;19.31;59.08
64886;BME280;51514;52.206;5.114;2023-11-21T10:26:11;101789.88;;;19.31;59.05
64886;BME280;51514;52.206;5.114;2023-11-21T10:28:41;101798.06;;;19.31;58.87
64886;BME280;51514;52.206;5.114;2023-11-21T10:31:07;101807.31;;;19.30;59.11
64886;BME280;51514;52.206;5.114;2023-11-21T10:33:32;101813.63;;;19.30;59.06
64886;BME280;51514;52.206;5.114;2023-11-21T10:35:58;101822.88;;;19.29;59.09
64886;BME280;51514;52.206;5.114;2023-11-21T10:38:24;101822.88;;;19.29;59.11
64886;BME280;51514;52.206;5.114;2023-11-21T10:40:52;101824.94;;;19.27;59.00
64886;BME280;51514;52.206;5.114;2023-11-21T10:43:17;101825.78;;;19.28;59.00
64886;BME280;51514;52.206;5.114;2023-11-21T10:45:44;101823.25;;;19.26;59.09
64886;BME280;51514;52.206;5.114;2023-11-21T10:48:10;101831.44;;;19.26;59.11
64886;BME280;51514;52.206;5.114;2023-11-21T10:50:38;101831.69;;;19.25;59.09
64886;BME280;51514;52.206;5.114;2023-11-21T10:53:04;101830.81;;;19.24;58.85
64886;BME280;51514;52.206;5.114;2023-11-21T10:55:30;101840.06;;;19.23;59.17
64886;BME280;51514;52.206;5.114;2023-11-21T10:57:59;101839.41;;;19.21;59.11
64886;BME280;51514;52.206;5.114;2023-11-21T11:00:26;101844.88;;;19.21;59.25
64886;BME280;51514;52.206;5.114;2023-11-21T11:02:53;101845.91;;;19.20;59.13
64886;BME280;51514;52.206;5.114;2023-11-21T11:05:23;101848.63;;;19.20;59.12
64886;BME280;51514;52.206;5.114;2023-11-21T11:07:58;101855.16;;;19.19;59.12
64886;BME280;51514;52.206;5.114;2023-11-21T11:10:28;101865.22;;;19.19;59.13
64886;BME280;51514;52.206;5.114;2023-11-21T11:12:55;101864.56;;;19.17;59.11
64886;BME280;51514;52.206;5.114;2023-11-21T11:15:21;101864.75;;;19.15;58.98
64886;BME280;51514;52.206;5.114;2023-11-21T11:17:46;101858.66;;;19.13;59.10
64886;BME280;51514;52.206;5.114;2023-11-21T11:20:14;101865.16;;;19.12;59.26
64886;BME280;51514;52.206;5.114;2023-11-21T11:23:08;101868.44;;;19.08;59.17
64886;BME280;51514;52.206;5.114;2023-11-21T11:26:07;101865.03;;;19.06;59.37
64886;BME280;51514;52.206;5.114;2023-11-21T11:28:47;101862.50;;;19.04;59.37
64886;BME280;51514;52.206;5.114;2023-11-21T11:34:30;101866.31;;;19.03;59.27
64886;BME280;51514;52.206;5.114;2023-11-21T11:37:07;101871.56;;;19.05;59.20
64886;BME280;51514;52.206;5.114;2023-11-21T11:39:37;101873.91;;;19.08;59.32
64886;BME280;51514;52.206;5.114;2023-11-21T11:42:05;101880.03;;;19.10;59.11
64886;BME280;51514;52.206;5.114;2023-11-21T11:47:32;101888.25;;;19.10;59.39
64886;BME280;51514;52.206;5.114;2023-11-21T11:50:03;101902.00;;;19.16;59.26
64886;BME280;51514;52.206;5.114;2023-11-21T11:55:08;101900.59;;;19.20;59.19
64886;BME280;51514;52.206;5.114;2023-11-21T11:57:38;101900.22;;;19.23;58.96
64886;BME280;51514;52.206;5.114;2023-11-21T12:00:08;101893.91;;;19.23;59.23
64886;BME280;51514;52.206;5.114;2023-11-21T12:02:36;101898.13;;;19.25;59.24
64886;BME280;51514;52.206;5.114;2023-11-21T12:05:10;101890.97;;;19.24;59.07
64886;BME280;51514;52.206;5.114;2023-11-21T12:07:53;101900.22;;;19.23;59.56
64886;BME280;51514;52.206;5.114;2023-11-21T12:13:00;101898.97;;;19.26;59.26
64886;BME280;51514;52.206;5.114;2023-11-21T12:15:26;101910.75;;;19.26;59.17
64886;BME280;51514;52.206;5.114;2023-11-21T12:17:56;101909.06;;;19.25;59.11
64886;BME280;51514;52.206;5.114;2023-11-21T12:20:23;101911.41;;;19.28;59.04
64886;BME280;51514;52.206;5.114;2023-11-21T12:22:52;101910.75;;;19.26;59.31
64886;BME280;51514;52.206;5.114;2023-11-21T12:25:22;101914.53;;;19.25;59.11
64886;BME280;51514;52.206;5.114;2023-11-21T12:27:50;101931.59;;;19.27;59.03
64886;BME280;51514;52.206;5.114;2023-11-21T12:30:17;101931.78;;;19.26;59.31
64886;BME280;51514;52.206;5.114;2023-11-21T12:32:44;101932.00;;;19.24;59.12
64886;BME280;51514;52.206;5.114;2023-11-21T12:35:11;101933.03;;;19.23;59.08
64886;BME280;51514;52.206;5.114;2023-11-21T12:37:41;101941.41;;;19.22;59.21
64886;BME280;51514;52.206;5.114;2023-11-21T12:40:10;101942.28;;;19.22;59.28
64886;BME280;51514;52.206;5.114;2023-11-21T12:42:44;101943.50;;;19.20;59.11
64886;BME280;51514;52.206;5.114;2023-11-21T12:48:02;101942.56;;;19.13;59.20
64886;BME280;51514;52.206;5.114;2023-11-21T12:50:32;101949.31;;;19.17;59.14
64886;BME280;51514;52.206;5.114;2023-11-21T12:53:06;101951.41;;;19.15;59.03
64886;BME280;51514;52.206;5.114;2023-11-21T12:55:34;101954.13;;;19.15;59.28
64886;BME280;51514;52.206;5.114;2023-11-21T12:58:07;101958.13;;;19.12;59.16
64886;BME280;51514;52.206;5.114;2023-11-21T13:00:38;101972.81;;;19.11;59.17
64886;BME280;51514;52.206;5.114;2023-11-21T13:03:05;101960.19;;;19.10;59.10